This is the latest recevied weather packets stored in our database for station/object XW7RMR. If no packets are shown the sender has not sent any weather packets the latest 10 day(s).
| Time | Temp. | Humidity | Pressure | Rain* | Wind** | Luminosity | Snow |
|---|---|---|---|---|---|---|---|
| 1777489178 | 15.56° C | 50% | 1022.2 hPa | 0 mm | - | 786 W/m² | - |
| 1777488875 | 14.44° C | 56% | 1022.3 hPa | 0 mm | - | 782 W/m² | - |
| 1777488572 | 13.89° C | 56% | 1022.4 hPa | 0 mm | - | 772 W/m² | - |
| 1777488270 | 15° C | 56% | 1022.3 hPa | 0 mm | - | 763 W/m² | - |
| 1777487969 | 15° C | 57% | 1022.4 hPa | 0 mm | - | 753 W/m² | - |
| 1777487666 | 16.11° C | 53% | 1022.5 hPa | 0 mm | - | 747 W/m² | - |
| 1777487362 | 15° C | 57% | 1022.5 hPa | 0 mm | - | 740 W/m² | - |
| 1777487061 | 15° C | 58% | 1022.6 hPa | 0 mm | - | 536 W/m² | - |
| 1777486756 | 15° C | 58% | 1022.9 hPa | 0 mm | - | 686 W/m² | - |
| 1777486454 | 14.44° C | 58% | 1022.7 hPa | 0 mm | - | 716 W/m² | - |
| 1777486151 | 13.89° C | 59% | 1022.8 hPa | 0 mm | - | 710 W/m² | - |
| 1777485849 | 14.44° C | 60% | 1022.9 hPa | 0 mm | - | 693 W/m² | - |
| 1777485544 | 13.89° C | 61% | 1022.9 hPa | 0 mm | - | 681 W/m² | - |
| 1777485240 | 13.33° C | 61% | 1023 hPa | 0 mm | - | 669 W/m² | - |
| 1777484936 | 13.89° C | 60% | 1023 hPa | 0 mm | - | 662 W/m² | - |
| 1777484634 | 12.78° C | 64% | 1022.8 hPa | 0 mm | - | 643 W/m² | - |
| 1777484330 | 13.33° C | 61% | 1022.9 hPa | 0 mm | - | 631 W/m² | - |
| 1777484026 | 12.78° C | 62% | 1022.9 hPa | 0 mm | - | 619 W/m² | - |
| 1777483723 | 12.78° C | 63% | 1023 hPa | 0 mm | - | 605 W/m² | - |
| 1777483419 | 12.78° C | 61% | 1023.1 hPa | 0 mm | - | 593 W/m² | - |
| 1777483119 | 12.22° C | 62% | 1023 hPa | 0 mm | - | 578 W/m² | - |
| 1777482817 | 12.78° C | 63% | 1023.1 hPa | 0 mm | - | 564 W/m² | - |
| 1777482512 | 12.22° C | 62% | 1023 hPa | 0 mm | - | 552 W/m² | - |
| 1777482210 | 12.78° C | 63% | 1023.1 hPa | 0 mm | - | 535 W/m² | - |
| 1777481907 | 12.22° C | 62% | 1023 hPa | 0 mm | - | 521 W/m² | - |
* Rain latest hour (hover to see other rain measurements)
** Current wind speed in m/s (hover to see current wind gust speed)